sensor_id;sensor_type;location;lat;lon;timestamp;temperature;humidity
19039;DHT22;9652;49.014;12.052;2023-08-01T00:01:43;21.90;65.80
19039;DHT22;9652;49.014;12.052;2023-08-01T00:04:10;21.80;65.60
19039;DHT22;9652;49.014;12.052;2023-08-01T00:06:37;21.80;65.70
19039;DHT22;9652;49.014;12.052;2023-08-01T00:09:04;21.80;65.70
19039;DHT22;9652;49.014;12.052;2023-08-01T00:11:31;21.80;65.90
19039;DHT22;9652;49.014;12.052;2023-08-01T00:13:58;21.70;65.80
19039;DHT22;9652;49.014;12.052;2023-08-01T00:16:28;21.80;66.00
19039;DHT22;9652;49.014;12.052;2023-08-01T00:18:55;21.60;65.80
19039;DHT22;9652;49.014;12.052;2023-08-01T00:21:22;21.70;65.80
19039;DHT22;9652;49.014;12.052;2023-08-01T00:23:49;21.70;65.90
19039;DHT22;9652;49.014;12.052;2023-08-01T00:26:17;21.70;65.90
19039;DHT22;9652;49.014;12.052;2023-08-01T00:28:44;21.70;66.10
19039;DHT22;9652;49.014;12.052;2023-08-01T00:31:11;21.70;66.20
19039;DHT22;9652;49.014;12.052;2023-08-01T00:33:40;21.70;66.10
19039;DHT22;9652;49.014;12.052;2023-08-01T00:36:07;21.70;66.20
19039;DHT22;9652;49.014;12.052;2023-08-01T00:38:35;21.60;66.10
19039;DHT22;9652;49.014;12.052;2023-08-01T00:41:02;21.70;66.20
19039;DHT22;9652;49.014;12.052;2023-08-01T00:43:29;21.60;66.20
19039;DHT22;9652;49.014;12.052;2023-08-01T00:46:00;21.70;66.40
19039;DHT22;9652;49.014;12.052;2023-08-01T00:48:29;21.60;66.60
19039;DHT22;9652;49.014;12.052;2023-08-01T00:51:01;21.70;66.60
19039;DHT22;9652;49.014;12.052;2023-08-01T00:53:31;21.50;66.70
19039;DHT22;9652;49.014;12.052;2023-08-01T00:55:59;21.60;66.70
19039;DHT22;9652;49.014;12.052;2023-08-01T00:58:26;21.50;66.70
19039;DHT22;9652;49.014;12.052;2023-08-01T01:00:53;21.50;66.90
19039;DHT22;9652;49.014;12.052;2023-08-01T01:03:22;21.50;66.90
19039;DHT22;9652;49.014;12.052;2023-08-01T01:05:55;21.50;67.20
19039;DHT22;9652;49.014;12.052;2023-08-01T01:08:27;21.50;67.60
19039;DHT22;9652;49.014;12.052;2023-08-01T01:10:54;21.50;67.60
19039;DHT22;9652;49.014;12.052;2023-08-01T01:13:21;21.50;67.60
19039;DHT22;9652;49.014;12.052;2023-08-01T01:15:48;21.50;67.60
19039;DHT22;9652;49.014;12.052;2023-08-01T01:18:15;21.50;67.70
19039;DHT22;9652;49.014;12.052;2023-08-01T01:20:44;21.50;67.80
19039;DHT22;9652;49.014;12.052;2023-08-01T01:23:11;21.50;68.00
19039;DHT22;9652;49.014;12.052;2023-08-01T01:25:39;21.50;68.00
19039;DHT22;9652;49.014;12.052;2023-08-01T01:28:08;21.50;68.30
19039;DHT22;9652;49.014;12.052;2023-08-01T01:30:37;21.50;68.30
19039;DHT22;9652;49.014;12.052;2023-08-01T01:33:05;21.50;68.30
19039;DHT22;9652;49.014;12.052;2023-08-01T01:35:34;21.50;68.40
19039;DHT22;9652;49.014;12.052;2023-08-01T01:38:03;21.50;68.50
19039;DHT22;9652;49.014;12.052;2023-08-01T01:40:31;21.60;68.70
19039;DHT22;9652;49.014;12.052;2023-08-01T01:42:58;21.60;68.60
19039;DHT22;9652;49.014;12.052;2023-08-01T01:45:26;21.50;68.50
19039;DHT22;9652;49.014;12.052;2023-08-01T01:47:53;21.50;68.60
19039;DHT22;9652;49.014;12.052;2023-08-01T01:50:20;21.50;68.60
19039;DHT22;9652;49.014;12.052;2023-08-01T01:52:47;21.60;68.70
19039;DHT22;9652;49.014;12.052;2023-08-01T01:55:16;21.50;68.80
19039;DHT22;9652;49.014;12.052;2023-08-01T01:57:43;21.50;68.90
19039;DHT22;9652;49.014;12.052;2023-08-01T02:00:11;21.50;68.80
19039;DHT22;9652;49.014;12.052;2023-08-01T02:02:39;21.50;68.80
19039;DHT22;9652;49.014;12.052;2023-08-01T02:05:06;21.50;68.80
19039;DHT22;9652;49.014;12.052;2023-08-01T02:07:34;21.50;68.90
19039;DHT22;9652;49.014;12.052;2023-08-01T02:10:01;21.50;68.90
19039;DHT22;9652;49.014;12.052;2023-08-01T02:12:32;21.50;69.10
19039;DHT22;9652;49.014;12.052;2023-08-01T02:15:01;21.50;69.30
19039;DHT22;9652;49.014;12.052;2023-08-01T02:17:28;21.60;69.30
19039;DHT22;9652;49.014;12.052;2023-08-01T02:19:56;21.50;69.30
19039;DHT22;9652;49.014;12.052;2023-08-01T02:22:25;21.50;69.50
19039;DHT22;9652;49.014;12.052;2023-08-01T02:24:52;21.50;69.80
19039;DHT22;9652;49.014;12.052;2023-08-01T02:27:19;21.50;69.80
19039;DHT22;9652;49.014;12.052;2023-08-01T02:29:48;21.50;69.80
19039;DHT22;9652;49.014;12.052;2023-08-01T02:32:16;21.50;69.80
19039;DHT22;9652;49.014;12.052;2023-08-01T02:34:44;21.50;69.60
19039;DHT22;9652;49.014;12.052;2023-08-01T02:37:11;21.50;69.60
19039;DHT22;9652;49.014;12.052;2023-08-01T02:39:38;21.50;69.60
19039;DHT22;9652;49.014;12.052;2023-08-01T02:42:05;21.50;69.60
19039;DHT22;9652;49.014;12.052;2023-08-01T02:44:33;21.50;69.80
19039;DHT22;9652;49.014;12.052;2023-08-01T02:47:02;21.50;70.10
19039;DHT22;9652;49.014;12.052;2023-08-01T02:49:29;21.50;70.40
19039;DHT22;9652;49.014;12.052;2023-08-01T02:51:56;21.50;70.40
19039;DHT22;9652;49.014;12.052;2023-08-01T02:54:24;21.50;70.60
19039;DHT22;9652;49.014;12.052;2023-08-01T02:56:51;21.50;70.90
19039;DHT22;9652;49.014;12.052;2023-08-01T02:59:18;21.50;71.00
19039;DHT22;9652;49.014;12.052;2023-08-01T03:01:45;21.50;71.00
19039;DHT22;9652;49.014;12.052;2023-08-01T03:04:14;21.50;71.10
19039;DHT22;9652;49.014;12.052;2023-08-01T03:06:41;21.50;71.10
19039;DHT22;9652;49.014;12.052;2023-08-01T03:09:08;21.50;71.00
19039;DHT22;9652;49.014;12.052;2023-08-01T03:11:35;21.50;71.00
19039;DHT22;9652;49.014;12.052;2023-08-01T03:14:03;21.30;70.90
19039;DHT22;9652;49.014;12.052;2023-08-01T03:16:31;21.40;71.00
19039;DHT22;9652;49.014;12.052;2023-08-01T03:18:58;21.50;71.00
19039;DHT22;9652;49.014;12.052;2023-08-01T03:21:31;21.40;71.10
19039;DHT22;9652;49.014;12.052;2023-08-01T03:23:59;21.40;71.30
19039;DHT22;9652;49.014;12.052;2023-08-01T03:26:27;21.50;71.50
19039;DHT22;9652;49.014;12.052;2023-08-01T03:28:55;21.40;71.30
19039;DHT22;9652;49.014;12.052;2023-08-01T03:31:22;21.40;71.30
19039;DHT22;9652;49.014;12.052;2023-08-01T03:33:50;21.40;71.30
19039;DHT22;9652;49.014;12.052;2023-08-01T03:36:17;21.40;71.50
19039;DHT22;9652;49.014;12.052;2023-08-01T03:38:46;21.40;71.50
19039;DHT22;9652;49.014;12.052;2023-08-01T03:41:13;21.40;71.70
19039;DHT22;9652;49.014;12.052;2023-08-01T03:43:40;21.40;71.70
19039;DHT22;9652;49.014;12.052;2023-08-01T03:46:08;21.40;72.50
19039;DHT22;9652;49.014;12.052;2023-08-01T03:48:35;21.40;71.80
19039;DHT22;9652;49.014;12.052;2023-08-01T03:51:02;21.30;71.80
19039;DHT22;9652;49.014;12.052;2023-08-01T03:53:29;21.40;71.80
19039;DHT22;9652;49.014;12.052;2023-08-01T03:55:58;21.40;72.70
19039;DHT22;9652;49.014;12.052;2023-08-01T03:58:25;21.50;72.00
19039;DHT22;9652;49.014;12.052;2023-08-01T04:00:52;21.40;71.80
19039;DHT22;9652;49.014;12.052;2023-08-01T04:03:19;21.40;71.80
19039;DHT22;9652;49.014;12.052;2023-08-01T04:05:47;21.40;71.80
19039;DHT22;9652;49.014;12.052;2023-08-01T04:08:14;21.50;72.00
19039;DHT22;9652;49.014;12.052;2023-08-01T04:10:41;21.40;72.00
19039;DHT22;9652;49.014;12.052;2023-08-01T04:13:09;21.40;72.00
19039;DHT22;9652;49.014;12.052;2023-08-01T04:15:36;21.40;72.30
19039;DHT22;9652;49.014;12.052;2023-08-01T04:18:03;21.40;72.50
19039;DHT22;9652;49.014;12.052;2023-08-01T04:20:30;21.40;72.70
19039;DHT22;9652;49.014;12.052;2023-08-01T04:22:57;21.20;72.70
19039;DHT22;9652;49.014;12.052;2023-08-01T04:25:25;21.30;73.00
19039;DHT22;9652;49.014;12.052;2023-08-01T04:27:53;21.30;73.20
19039;DHT22;9652;49.014;12.052;2023-08-01T04:30:21;21.30;73.00
19039;DHT22;9652;49.014;12.052;2023-08-01T04:32:48;21.20;72.90
19039;DHT22;9652;49.014;12.052;2023-08-01T04:35:15;21.20;73.00
19039;DHT22;9652;49.014;12.052;2023-08-01T04:37:43;21.20;73.20
19039;DHT22;9652;49.014;12.052;2023-08-01T04:40:11;21.10;73.00
19039;DHT22;9652;49.014;12.052;2023-08-01T04:42:38;21.10;73.20
19039;DHT22;9652;49.014;12.052;2023-08-01T04:45:06;21.10;73.30
19039;DHT22;9652;49.014;12.052;2023-08-01T04:47:35;21.00;73.30
19039;DHT22;9652;49.014;12.052;2023-08-01T04:50:02;21.00;73.40
19039;DHT22;9652;49.014;12.052;2023-08-01T04:52:30;21.00;73.70
19039;DHT22;9652;49.014;12.052;2023-08-01T04:54:57;21.00;74.80
19039;DHT22;9652;49.014;12.052;2023-08-01T04:57:24;21.00;74.40
19039;DHT22;9652;49.014;12.052;2023-08-01T04:59:51;20.90;74.60
19039;DHT22;9652;49.014;12.052;2023-08-01T05:02:18;20.90;74.80
19039;DHT22;9652;49.014;12.052;2023-08-01T05:04:46;20.90;74.80
19039;DHT22;9652;49.014;12.052;2023-08-01T05:07:13;20.80;75.00
19039;DHT22;9652;49.014;12.052;2023-08-01T05:09:40;20.80;75.00
19039;DHT22;9652;49.014;12.052;2023-08-01T05:12:08;20.70;75.10
19039;DHT22;9652;49.014;12.052;2023-08-01T05:14:35;20.70;75.10
19039;DHT22;9652;49.014;12.052;2023-08-01T05:17:02;20.70;75.30
19039;DHT22;9652;49.014;12.052;2023-08-01T05:19:30;20.70;75.30
19039;DHT22;9652;49.014;12.052;2023-08-01T05:21:58;20.60;75.40
19039;DHT22;9652;49.014;12.052;2023-08-01T05:24:25;20.60;75.40
19039;DHT22;9652;49.014;12.052;2023-08-01T05:26:53;20.70;75.50
19039;DHT22;9652;49.014;12.052;2023-08-01T05:29:20;20.60;75.60
19039;DHT22;9652;49.014;12.052;2023-08-01T05:31:48;20.60;75.70
19039;DHT22;9652;49.014;12.052;2023-08-01T05:34:15;20.60;75.70
19039;DHT22;9652;49.014;12.052;2023-08-01T05:36:42;20.60;75.80
19039;DHT22;9652;49.014;12.052;2023-08-01T05:39:10;20.60;75.80
19039;DHT22;9652;49.014;12.052;2023-08-01T05:41:37;20.50;75.70
19039;DHT22;9652;49.014;12.052;2023-08-01T05:44:04;20.60;75.60
19039;DHT22;9652;49.014;12.052;2023-08-01T05:46:31;20.50;75.50
19039;DHT22;9652;49.014;12.052;2023-08-01T05:48:58;20.50;75.50
19039;DHT22;9652;49.014;12.052;2023-08-01T05:51:25;20.50;75.60
19039;DHT22;9652;49.014;12.052;2023-08-01T05:53:53;20.50;75.80
19039;DHT22;9652;49.014;12.052;2023-08-01T05:56:21;20.40;75.80
19039;DHT22;9652;49.014;12.052;2023-08-01T05:58:48;20.50;76.00
19039;DHT22;9652;49.014;12.052;2023-08-01T06:01:16;20.50;76.10
19039;DHT22;9652;49.014;12.052;2023-08-01T06:03:43;20.50;76.20
19039;DHT22;9652;49.014;12.052;2023-08-01T06:06:10;20.60;76.10
19039;DHT22;9652;49.014;12.052;2023-08-01T06:08:37;20.60;76.20
19039;DHT22;9652;49.014;12.052;2023-08-01T06:11:04;20.60;76.10
19039;DHT22;9652;49.014;12.052;2023-08-01T06:13:33;20.60;76.10
19039;DHT22;9652;49.014;12.052;2023-08-01T06:16:00;20.70;76.10
19039;DHT22;9652;49.014;12.052;2023-08-01T06:18:27;20.70;76.00
19039;DHT22;9652;49.014;12.052;2023-08-01T06:20:54;20.70;76.00
19039;DHT22;9652;49.014;12.052;2023-08-01T06:23:21;20.80;76.20
19039;DHT22;9652;49.014;12.052;2023-08-01T06:25:48;20.80;76.30
19039;DHT22;9652;49.014;12.052;2023-08-01T06:28:15;20.80;76.00
19039;DHT22;9652;49.014;12.052;2023-08-01T06:30:44;20.80;75.80
19039;DHT22;9652;49.014;12.052;2023-08-01T06:33:12;20.90;75.70
19039;DHT22;9652;49.014;12.052;2023-08-01T06:35:39;20.90;75.60
19039;DHT22;9652;49.014;12.052;2023-08-01T06:38:06;21.00;75.70
19039;DHT22;9652;49.014;12.052;2023-08-01T06:40:33;21.00;75.50
19039;DHT22;9652;49.014;12.052;2023-08-01T06:43:00;21.00;75.40
19039;DHT22;9652;49.014;12.052;2023-08-01T06:45:27;21.10;75.20
19039;DHT22;9652;49.014;12.052;2023-08-01T06:47:55;21.00;74.90
19039;DHT22;9652;49.014;12.052;2023-08-01T06:50:23;21.00;74.70
19039;DHT22;9652;49.014;12.052;2023-08-01T06:52:50;21.00;74.50
19039;DHT22;9652;49.014;12.052;2023-08-01T06:55:17;21.00;74.50
19039;DHT22;9652;49.014;12.052;2023-08-01T06:57:44;21.00;74.70
19039;DHT22;9652;49.014;12.052;2023-08-01T07:00:12;21.00;74.90
19039;DHT22;9652;49.014;12.052;2023-08-01T07:02:39;21.00;75.00
19039;DHT22;9652;49.014;12.052;2023-08-01T07:05:08;21.10;75.20
19039;DHT22;9652;49.014;12.052;2023-08-01T07:07:35;21.20;75.50
19039;DHT22;9652;49.014;12.052;2023-08-01T07:10:02;21.10;75.30
19039;DHT22;9652;49.014;12.052;2023-08-01T07:12:29;21.20;75.40
19039;DHT22;9652;49.014;12.052;2023-08-01T07:14:56;21.30;75.50
19039;DHT22;9652;49.014;12.052;2023-08-01T07:17:24;21.40;75.40
19039;DHT22;9652;49.014;12.052;2023-08-01T07:19:51;21.40;75.40
19039;DHT22;9652;49.014;12.052;2023-08-01T07:22:20;21.50;75.50
19039;DHT22;9652;49.014;12.052;2023-08-01T07:24:47;21.50;75.50
19039;DHT22;9652;49.014;12.052;2023-08-01T07:27:19;21.60;75.40
19039;DHT22;9652;49.014;12.052;2023-08-01T07:29:46;21.70;75.40
19039;DHT22;9652;49.014;12.052;2023-08-01T07:32:14;21.80;76.30
19039;DHT22;9652;49.014;12.052;2023-08-01T07:34:41;21.80;75.50
19039;DHT22;9652;49.014;12.052;2023-08-01T07:37:08;21.90;75.30
19039;DHT22;9652;49.014;12.052;2023-08-01T07:39:36;22.00;75.70
19039;DHT22;9652;49.014;12.052;2023-08-01T07:42:04;22.10;75.50
19039;DHT22;9652;49.014;12.052;2023-08-01T07:44:31;22.10;75.70
19039;DHT22;9652;49.014;12.052;2023-08-01T07:46:58;22.20;76.00
19039;DHT22;9652;49.014;12.052;2023-08-01T07:49:25;22.30;76.30
19039;DHT22;9652;49.014;12.052;2023-08-01T07:51:53;22.60;76.40
19039;DHT22;9652;49.014;12.052;2023-08-01T07:54:20;22.70;76.50
19039;DHT22;9652;49.014;12.052;2023-08-01T07:56:48;22.90;76.40
19039;DHT22;9652;49.014;12.052;2023-08-01T07:59:15;23.10;76.10
19039;DHT22;9652;49.014;12.052;2023-08-01T08:01:42;23.20;75.50
19039;DHT22;9652;49.014;12.052;2023-08-01T08:04:09;23.40;75.10
19039;DHT22;9652;49.014;12.052;2023-08-01T08:06:36;23.50;74.50
19039;DHT22;9652;49.014;12.052;2023-08-01T08:09:03;23.70;73.80
19039;DHT22;9652;49.014;12.052;2023-08-01T08:11:31;23.80;73.30
19039;DHT22;9652;49.014;12.052;2023-08-01T08:14:00;23.80;73.10
19039;DHT22;9652;49.014;12.052;2023-08-01T08:16:27;23.90;72.60
19039;DHT22;9652;49.014;12.052;2023-08-01T08:18:54;23.80;72.10
19039;DHT22;9652;49.014;12.052;2023-08-01T08:21:21;23.90;71.90
19039;DHT22;9652;49.014;12.052;2023-08-01T08:23:48;23.90;71.90
19039;DHT22;9652;49.014;12.052;2023-08-01T08:26:15;23.90;71.90
19039;DHT22;9652;49.014;12.052;2023-08-01T08:28:42;23.90;71.70
19039;DHT22;9652;49.014;12.052;2023-08-01T08:31:11;23.80;71.10
19039;DHT22;9652;49.014;12.052;2023-08-01T08:33:38;23.80;71.40
19039;DHT22;9652;49.014;12.052;2023-08-01T08:36:05;23.70;71.70
19039;DHT22;9652;49.014;12.052;2023-08-01T08:38:32;23.70;71.90
19039;DHT22;9652;49.014;12.052;2023-08-01T08:41:06;23.60;72.20
19039;DHT22;9652;49.014;12.052;2023-08-01T08:43:36;23.60;72.60
19039;DHT22;9652;49.014;12.052;2023-08-01T08:46:04;23.80;72.80
19039;DHT22;9652;49.014;12.052;2023-08-01T08:48:34;23.60;72.90
19039;DHT22;9652;49.014;12.052;2023-08-01T08:51:02;23.60;73.10
19039;DHT22;9652;49.014;12.052;2023-08-01T08:53:30;23.60;73.40
19039;DHT22;9652;49.014;12.052;2023-08-01T08:55:59;23.60;73.50
19039;DHT22;9652;49.014;12.052;2023-08-01T08:58:29;23.70;73.70
19039;DHT22;9652;49.014;12.052;2023-08-01T09:00:57;23.70;73.60
19039;DHT22;9652;49.014;12.052;2023-08-01T09:03:25;23.60;73.60
19039;DHT22;9652;49.014;12.052;2023-08-01T09:06:00;23.60;73.40
19039;DHT22;9652;49.014;12.052;2023-08-01T09:08:32;23.60;73.20
19039;DHT22;9652;49.014;12.052;2023-08-01T09:11:03;23.60;73.40
19039;DHT22;9652;49.014;12.052;2023-08-01T09:13:30;23.60;73.30
19039;DHT22;9652;49.014;12.052;2023-08-01T09:15:57;23.60;73.40
19039;DHT22;9652;49.014;12.052;2023-08-01T09:18:28;23.50;73.40
19039;DHT22;9652;49.014;12.052;2023-08-01T09:20:56;23.60;73.50
19039;DHT22;9652;49.014;12.052;2023-08-01T09:23:27;23.50;73.60
19039;DHT22;9652;49.014;12.052;2023-08-01T09:25:56;23.50;73.50
19039;DHT22;9652;49.014;12.052;2023-08-01T09:28:23;23.50;73.70
19039;DHT22;9652;49.014;12.052;2023-08-01T09:30:54;23.50;73.70
19039;DHT22;9652;49.014;12.052;2023-08-01T09:33:23;23.40;73.60
19039;DHT22;9652;49.014;12.052;2023-08-01T09:35:51;23.40;73.60
19039;DHT22;9652;49.014;12.052;2023-08-01T09:38:20;23.40;73.80
19039;DHT22;9652;49.014;12.052;2023-08-01T09:40:47;23.40;73.90
19039;DHT22;9652;49.014;12.052;2023-08-01T09:43:15;23.30;73.90
19039;DHT22;9652;49.014;12.052;2023-08-01T09:45:50;23.40;74.30
19039;DHT22;9652;49.014;12.052;2023-08-01T09:48:22;23.20;75.10
19039;DHT22;9652;49.014;12.052;2023-08-01T09:50:51;23.20;74.90
19039;DHT22;9652;49.014;12.052;2023-08-01T09:53:20;23.10;74.30
19039;DHT22;9652;49.014;12.052;2023-08-01T09:55:48;23.10;73.70
19039;DHT22;9652;49.014;12.052;2023-08-01T09:58:20;23.00;73.30
19039;DHT22;9652;49.014;12.052;2023-08-01T10:00:50;22.90;73.30
19039;DHT22;9652;49.014;12.052;2023-08-01T10:03:18;22.80;73.30
19039;DHT22;9652;49.014;12.052;2023-08-01T10:05:45;22.80;73.70
19039;DHT22;9652;49.014;12.052;2023-08-01T10:08:13;22.70;74.20
19039;DHT22;9652;49.014;12.052;2023-08-01T10:10:43;22.60;74.30
19039;DHT22;9652;49.014;12.052;2023-08-01T10:13:13;22.60;74.60
19039;DHT22;9652;49.014;12.052;2023-08-01T10:15:41;22.60;74.50
19039;DHT22;9652;49.014;12.052;2023-08-01T10:18:08;22.50;74.00
19039;DHT22;9652;49.014;12.052;2023-08-01T10:20:37;22.50;74.20
19039;DHT22;9652;49.014;12.052;2023-08-01T10:23:06;22.50;74.80
19039;DHT22;9652;49.014;12.052;2023-08-01T10:25:35;22.50;75.10
19039;DHT22;9652;49.014;12.052;2023-08-01T10:28:06;22.50;75.10
19039;DHT22;9652;49.014;12.052;2023-08-01T10:30:33;22.60;75.20
19039;DHT22;9652;49.014;12.052;2023-08-01T10:33:00;22.60;74.80
19039;DHT22;9652;49.014;12.052;2023-08-01T10:35:34;22.60;74.40
19039;DHT22;9652;49.014;12.052;2023-08-01T10:38:06;22.60;74.20
19039;DHT22;9652;49.014;12.052;2023-08-01T10:40:35;22.60;74.50
19039;DHT22;9652;49.014;12.052;2023-08-01T10:43:05;22.60;74.50
19039;DHT22;9652;49.014;12.052;2023-08-01T10:45:32;22.60;74.70
19039;DHT22;9652;49.014;12.052;2023-08-01T10:48:07;22.60;74.90
19039;DHT22;9652;49.014;12.052;2023-08-01T10:50:35;22.60;74.90
19039;DHT22;9652;49.014;12.052;2023-08-01T10:53:04;22.70;75.00
19039;DHT22;9652;49.014;12.052;2023-08-01T10:55:40;22.80;75.00
19039;DHT22;9652;49.014;12.052;2023-08-01T10:58:09;22.80;74.40
19039;DHT22;9652;49.014;12.052;2023-08-01T11:00:36;22.90;74.20
19039;DHT22;9652;49.014;12.052;2023-08-01T11:03:04;23.00;73.80
19039;DHT22;9652;49.014;12.052;2023-08-01T11:05:31;23.00;73.80
19039;DHT22;9652;49.014;12.052;2023-08-01T11:07:59;23.10;74.20
19039;DHT22;9652;49.014;12.052;2023-08-01T11:10:28;23.20;74.60
19039;DHT22;9652;49.014;12.052;2023-08-01T11:12:58;23.30;74.30
19039;DHT22;9652;49.014;12.052;2023-08-01T11:15:27;23.50;73.90
19039;DHT22;9652;49.014;12.052;2023-08-01T11:17:55;23.50;73.40
19039;DHT22;9652;49.014;12.052;2023-08-01T11:20:24;23.70;73.20
19039;DHT22;9652;49.014;12.052;2023-08-01T11:22:55;23.80;72.80
19039;DHT22;9652;49.014;12.052;2023-08-01T11:25:33;23.90;72.40
19039;DHT22;9652;49.014;12.052;2023-08-01T11:28:05;23.90;70.90
19039;DHT22;9652;49.014;12.052;2023-08-01T11:30:34;23.90;71.10
19039;DHT22;9652;49.014;12.052;2023-08-01T11:33:02;24.00;70.70
19039;DHT22;9652;49.014;12.052;2023-08-01T11:35:40;24.00;70.30
19039;DHT22;9652;49.014;12.052;2023-08-01T11:38:08;23.80;69.70
19039;DHT22;9652;49.014;12.052;2023-08-01T11:40:35;23.90;69.60
19039;DHT22;9652;49.014;12.052;2023-08-01T11:43:03;23.80;69.70
19039;DHT22;9652;49.014;12.052;2023-08-01T11:45:30;23.70;69.70
19039;DHT22;9652;49.014;12.052;2023-08-01T11:47:59;23.60;70.00
19039;DHT22;9652;49.014;12.052;2023-08-01T11:50:26;23.50;70.50
19039;DHT22;9652;49.014;12.052;2023-08-01T11:52:53;23.40;70.50
19039;DHT22;9652;49.014;12.052;2023-08-01T11:55:22;23.30;70.60
19039;DHT22;9652;49.014;12.052;2023-08-01T11:57:57;23.30;70.90
19039;DHT22;9652;49.014;12.052;2023-08-01T12:00:26;23.20;70.90
19039;DHT22;9652;49.014;12.052;2023-08-01T12:03:06;23.20;71.10
19039;DHT22;9652;49.014;12.052;2023-08-01T12:05:33;23.20;71.40
19039;DHT22;9652;49.014;12.052;2023-08-01T12:08:12;23.30;72.10
19039;DHT22;9652;49.014;12.052;2023-08-01T12:10:40;23.30;72.20
19039;DHT22;9652;49.014;12.052;2023-08-01T12:13:19;23.40;72.10
19039;DHT22;9652;49.014;12.052;2023-08-01T12:15:47;23.50;71.40
19039;DHT22;9652;49.014;12.052;2023-08-01T12:18:21;23.50;71.50
19039;DHT22;9652;49.014;12.052;2023-08-01T12:20:49;23.60;70.90
19039;DHT22;9652;49.014;12.052;2023-08-01T12:23:16;23.70;70.90
19039;DHT22;9652;49.014;12.052;2023-08-01T12:25:43;23.70;70.70
19039;DHT22;9652;49.014;12.052;2023-08-01T12:28:11;23.70;70.80
19039;DHT22;9652;49.014;12.052;2023-08-01T12:30:39;23.80;70.90
19039;DHT22;9652;49.014;12.052;2023-08-01T12:33:07;23.90;71.20
19039;DHT22;9652;49.014;12.052;2023-08-01T12:35:39;24.00;71.60
19039;DHT22;9652;49.014;12.052;2023-08-01T12:38:07;24.00;71.60
19039;DHT22;9652;49.014;12.052;2023-08-01T12:40:34;24.30;71.80
19039;DHT22;9652;49.014;12.052;2023-08-01T12:43:01;24.30;71.60
19039;DHT22;9652;49.014;12.052;2023-08-01T12:45:29;24.40;71.30
19039;DHT22;9652;49.014;12.052;2023-08-01T12:47:56;24.60;70.80
19039;DHT22;9652;49.014;12.052;2023-08-01T12:50:23;24.70;70.40
19039;DHT22;9652;49.014;12.052;2023-08-01T12:52:51;24.80;70.10
19039;DHT22;9652;49.014;12.052;2023-08-01T12:55:19;24.90;69.80
19039;DHT22;9652;49.014;12.052;2023-08-01T12:57:46;24.90;70.60
19039;DHT22;9652;49.014;12.052;2023-08-01T13:00:13;25.10;70.10
19039;DHT22;9652;49.014;12.052;2023-08-01T13:02:41;25.20;69.90
19039;DHT22;9652;49.014;12.052;2023-08-01T13:05:08;25.30;69.70
19039;DHT22;9652;49.014;12.052;2023-08-01T13:07:35;25.50;69.60
19039;DHT22;9652;49.014;12.052;2023-08-01T13:10:05;25.60;69.00
19039;DHT22;9652;49.014;12.052;2023-08-01T13:12:32;25.70;68.30
19039;DHT22;9652;49.014;12.052;2023-08-01T13:14:59;25.80;68.20
19039;DHT22;9652;49.014;12.052;2023-08-01T13:17:26;25.80;67.70
19039;DHT22;9652;49.014;12.052;2023-08-01T13:19:53;25.90;67.40
19039;DHT22;9652;49.014;12.052;2023-08-01T13:22:20;25.90;67.10
19039;DHT22;9652;49.014;12.052;2023-08-01T13:24:47;26.00;67.00
19039;DHT22;9652;49.014;12.052;2023-08-01T13:27:16;26.00;67.30
19039;DHT22;9652;49.014;12.052;2023-08-01T13:29:43;26.10;67.60
19039;DHT22;9652;49.014;12.052;2023-08-01T13:32:10;26.20;68.90
19039;DHT22;9652;49.014;12.052;2023-08-01T13:34:37;26.40;70.10
19039;DHT22;9652;49.014;12.052;2023-08-01T13:37:04;26.70;70.60
19039;DHT22;9652;49.014;12.052;2023-08-01T13:39:31;27.10;70.70
19039;DHT22;9652;49.014;12.052;2023-08-01T13:41:58;27.40;67.10
19039;DHT22;9652;49.014;12.052;2023-08-01T13:44:27;27.60;64.80
19039;DHT22;9652;49.014;12.052;2023-08-01T13:46:54;27.70;64.50
19039;DHT22;9652;49.014;12.052;2023-08-01T13:49:21;27.80;65.10
19039;DHT22;9652;49.014;12.052;2023-08-01T13:51:48;28.00;65.00
19039;DHT22;9652;49.014;12.052;2023-08-01T13:54:15;28.10;63.90
19039;DHT22;9652;49.014;12.052;2023-08-01T13:56:42;28.20;62.20
19039;DHT22;9652;49.014;12.052;2023-08-01T13:59:09;28.20;61.50
19039;DHT22;9652;49.014;12.052;2023-08-01T14:01:38;28.10;60.40
19039;DHT22;9652;49.014;12.052;2023-08-01T14:04:05;28.10;59.90
19039;DHT22;9652;49.014;12.052;2023-08-01T14:06:32;28.00;61.00
19039;DHT22;9652;49.014;12.052;2023-08-01T14:08:59;28.00;61.60
19039;DHT22;9652;49.014;12.052;2023-08-01T14:11:26;28.00;62.70
19039;DHT22;9652;49.014;12.052;2023-08-01T14:13:53;28.10;63.60
19039;DHT22;9652;49.014;12.052;2023-08-01T14:16:20;28.30;64.40
19039;DHT22;9652;49.014;12.052;2023-08-01T14:18:48;28.50;63.60
19039;DHT22;9652;49.014;12.052;2023-08-01T14:21:15;28.80;63.30
19039;DHT22;9652;49.014;12.052;2023-08-01T14:23:42;29.00;63.10
19039;DHT22;9652;49.014;12.052;2023-08-01T14:26:09;29.30;62.70
19039;DHT22;9652;49.014;12.052;2023-08-01T14:28:37;29.60;61.10
19039;DHT22;9652;49.014;12.052;2023-08-01T14:31:04;29.90;60.00
19039;DHT22;9652;49.014;12.052;2023-08-01T14:33:33;30.00;59.40
19039;DHT22;9652;49.014;12.052;2023-08-01T14:36:02;30.20;59.60
19039;DHT22;9652;49.014;12.052;2023-08-01T14:38:33;30.40;59.10
19039;DHT22;9652;49.014;12.052;2023-08-01T14:41:02;30.80;58.40
19039;DHT22;9652;49.014;12.052;2023-08-01T14:43:29;31.00;58.00
19039;DHT22;9652;49.014;12.052;2023-08-01T14:45:56;31.30;57.50
19039;DHT22;9652;49.014;12.052;2023-08-01T14:48:23;31.60;57.10
19039;DHT22;9652;49.014;12.052;2023-08-01T14:50:50;31.80;55.60
19039;DHT22;9652;49.014;12.052;2023-08-01T14:53:19;31.90;52.00
19039;DHT22;9652;49.014;12.052;2023-08-01T14:55:46;31.80;49.90
19039;DHT22;9652;49.014;12.052;2023-08-01T14:58:14;31.50;49.10
19039;DHT22;9652;49.014;12.052;2023-08-01T15:00:41;31.10;47.80
19039;DHT22;9652;49.014;12.052;2023-08-01T15:03:08;30.50;49.00
19039;DHT22;9652;49.014;12.052;2023-08-01T15:05:35;30.00;48.80
19039;DHT22;9652;49.014;12.052;2023-08-01T15:08:02;29.60;48.90
19039;DHT22;9652;49.014;12.052;2023-08-01T15:10:32;29.10;49.30
19039;DHT22;9652;49.014;12.052;2023-08-01T15:12:59;28.80;49.70
19039;DHT22;9652;49.014;12.052;2023-08-01T15:15:26;28.50;51.50
19039;DHT22;9652;49.014;12.052;2023-08-01T15:17:53;28.30;52.10
19039;DHT22;9652;49.014;12.052;2023-08-01T15:20:20;28.30;54.00
19039;DHT22;9652;49.014;12.052;2023-08-01T15:22:47;28.50;54.80
19039;DHT22;9652;49.014;12.052;2023-08-01T15:25:14;28.80;55.30
19039;DHT22;9652;49.014;12.052;2023-08-01T15:27:43;29.20;54.10
19039;DHT22;9652;49.014;12.052;2023-08-01T15:30:10;29.50;53.30
19039;DHT22;9652;49.014;12.052;2023-08-01T15:32:38;29.80;53.40
19039;DHT22;9652;49.014;12.052;2023-08-01T15:35:05;30.10;53.00